Time;durP1;ratioP1;P1;durP2;ratioP2;P2;SDS_P1;SDS_P2;PMS_P1;PMS_P2;Temp;Humidity;BMP_temperature;BMP_pressure;BME280_temperature;BME280_humidity;BME280_pressure;Samples;Min_cycle;Max_cycle;Signal;HPM_P1;HPM_P2
2022/07/15 00:00:10;;;;;;;7.12;4.42;;;;;;;19.48;64.23;100138.27;1736633;80;21164;-49
2022/07/15 00:02:37;;;;;;;5.97;4.03;;;;;;;19.43;64.76;100135.83;1737101;82;21127;-49
2022/07/15 00:05:06;;;;;;;5.22;3.62;;;;;;;19.44;64.95;100134.83;1728963;81;21509;-49
2022/07/15 00:07:33;;;;;;;7.30;4.45;;;;;;;19.46;65.08;100124.27;1739275;80;21126;-48
2022/07/15 00:10:15;;;;;;;8.23;4.03;;;;;;;19.51;65.11;100124.23;1745926;80;22428;-49
2022/07/15 00:12:50;;;;;;;7.12;3.83;;;;;;;19.54;65.08;100123.86;1729388;81;21171;-49
2022/07/15 00:15:20;;;;;;;5.78;3.90;;;;;;;19.58;64.91;100122.45;1739181;81;21058;-49
2022/07/15 00:17:47;;;;;;;6.30;4.08;;;;;;;19.60;64.69;100123.09;1706437;82;21062;-48
2022/07/15 00:20:14;;;;;;;7.10;4.22;;;;;;;19.58;64.56;100121.94;1738853;81;21084;-49
2022/07/15 00:22:41;;;;;;;5.50;3.67;;;;;;;19.55;64.56;100116.16;1738059;80;21071;-49
2022/07/15 00:25:09;;;;;;;6.37;3.80;;;;;;;19.51;64.67;100111.70;1735928;80;21188;-48
2022/07/15 00:27:36;;;;;;;6.67;3.62;;;;;;;19.48;64.71;100111.59;1730489;81;21020;-49
2022/07/15 00:30:06;;;;;;;6.47;4.30;;;;;;;19.50;64.69;100107.38;1733943;80;21079;-49
2022/07/15 00:32:33;;;;;;;7.75;4.25;;;;;;;19.52;64.68;100108.52;1737514;80;22389;-49
2022/07/15 00:34:59;;;;;;;6.70;3.90;;;;;;;19.48;64.66;100104.08;1738110;80;21007;-51
2022/07/15 00:37:26;;;;;;;7.85;4.72;;;;;;;19.42;64.82;100109.66;1737351;80;21179;-49
2022/07/15 00:39:52;;;;;;;7.00;3.60;;;;;;;19.39;64.92;100106.03;1739371;80;21063;-49
2022/07/15 00:45:09;;;;;;;5.92;3.60;;;;;;;19.37;65.04;100108.06;1735573;80;21074;-47
2022/07/15 00:47:36;;;;;;;5.37;3.95;;;;;;;19.38;64.88;100107.03;1735590;80;21590;-47
2022/07/15 00:50:04;;;;;;;6.03;3.60;;;;;;;19.43;64.88;100102.48;1703046;82;21224;-48
2022/07/15 00:52:31;;;;;;;7.15;3.92;;;;;;;19.44;64.86;100106.30;1704055;82;21503;-48
2022/07/15 00:54:59;;;;;;;9.05;4.10;;;;;;;19.40;64.98;100109.03;1737855;80;21093;-47
2022/07/15 00:57:26;;;;;;;7.00;4.45;;;;;;;19.38;65.18;100104.36;1707722;82;21102;-49
2022/07/15 00:59:54;;;;;;;7.28;4.75;;;;;;;19.32;65.31;100107.80;1714139;82;21098;-47
2022/07/15 01:02:20;;;;;;;5.65;3.90;;;;;;;19.25;65.77;100101.05;1731848;80;21223;-47
2022/07/15 01:04:48;;;;;;;6.22;3.72;;;;;;;19.20;66.11;100106.12;1732793;80;21059;-47
2022/07/15 01:07:15;;;;;;;6.28;4.00;;;;;;;19.23;66.27;100098.23;1737037;80;21315;-47
2022/07/15 01:09:42;;;;;;;6.95;3.80;;;;;;;19.24;66.40;100094.05;1732059;81;21047;-47
2022/07/15 01:12:08;;;;;;;8.25;4.20;;;;;;;19.25;66.51;100093.56;1737902;81;21124;-48
2022/07/15 01:14:36;;;;;;;7.12;4.40;;;;;;;19.24;66.53;100095.90;1723265;82;21258;-48
2022/07/15 01:17:10;;;;;;;6.45;4.10;;;;;;;19.24;66.60;100099.91;1728047;81;21067;-47
2022/07/15 01:19:38;;;;;;;7.33;4.40;;;;;;;19.22;66.67;100096.08;1749947;80;21667;-48
2022/07/15 01:22:05;;;;;;;6.60;3.80;;;;;;;19.24;66.66;100095.38;1757162;80;20996;-47
2022/07/15 01:24:34;;;;;;;7.70;3.75;;;;;;;19.30;66.54;100098.65;1749569;80;21093;-48
2022/07/15 01:27:11;;;;;;;8.50;4.45;;;;;;;19.36;66.63;100104.25;1750539;80;21997;-47
2022/07/15 01:29:38;;;;;;;7.00;4.95;;;;;;;19.37;66.68;100105.39;1731843;81;21125;-47
2022/07/15 01:32:05;;;;;;;5.92;3.70;;;;;;;19.37;66.64;100097.91;1753908;80;21318;-47
2022/07/15 01:34:32;;;;;;;10.43;4.85;;;;;;;19.34;66.55;100095.61;1716528;82;20979;-48
2022/07/15 01:36:59;;;;;;;8.00;4.17;;;;;;;19.29;66.64;100100.17;1723677;82;21078;-48
2022/07/15 01:39:26;;;;;;;6.83;4.08;;;;;;;19.26;66.83;100094.69;1717208;82;21164;-48
2022/07/15 01:41:54;;;;;;;8.43;4.60;;;;;;;19.27;66.85;100092.34;1722657;82;21073;-48
2022/07/15 01:44:21;;;;;;;6.10;4.28;;;;;;;19.30;66.77;100105.31;1690261;84;21040;-47
2022/07/15 01:46:48;;;;;;;6.67;4.35;;;;;;;19.30;66.76;100101.31;1725456;82;21041;-48
2022/07/15 01:49:22;;;;;;;7.97;5.08;;;;;;;19.29;66.78;100100.17;1721264;82;21097;-48
2022/07/15 01:51:54;;;;;;;10.98;5.08;;;;;;;19.29;66.86;100106.32;1692198;84;21868;-48
2022/07/15 01:54:22;;;;;;;6.95;4.22;;;;;;;19.26;66.91;100101.35;1714452;82;21108;-48
2022/07/15 01:56:50;;;;;;;6.22;3.75;;;;;;;19.27;66.95;100103.53;1694911;82;21162;-48
2022/07/15 01:59:17;;;;;;;5.78;4.08;;;;;;;19.34;66.74;100099.09;1696520;83;21835;-48
2022/07/15 02:01:44;;;;;;;8.68;4.28;;;;;;;19.38;66.57;100093.69;1694187;84;21084;-48
2022/07/15 02:04:15;;;;;;;12.58;5.42;;;;;;;19.38;66.53;100096.88;1714694;82;21482;-48
2022/07/15 02:06:42;;;;;;;6.37;4.83;;;;;;;19.41;66.72;100099.17;1723482;82;21062;-48
2022/07/15 02:09:10;;;;;;;8.88;4.87;;;;;;;19.42;66.97;100098.17;1721635;82;21007;-48
2022/07/15 02:11:40;;;;;;;7.60;4.20;;;;;;;19.45;66.79;100094.63;1705999;82;21082;-48
2022/07/15 02:14:06;;;;;;;5.47;3.72;;;;;;;19.49;66.62;100095.88;1710778;83;21071;-48
2022/07/15 02:16:35;;;;;;;6.90;4.12;;;;;;;19.58;66.36;100087.77;1704864;82;21314;-48
2022/07/15 02:19:03;;;;;;;7.35;4.40;;;;;;;19.62;66.23;100087.72;1703304;83;21087;-48
2022/07/15 02:21:31;;;;;;;7.72;4.78;;;;;;;19.59;66.36;100092.91;1702657;83;21560;-48
2022/07/15 02:23:59;;;;;;;6.25;4.70;;;;;;;19.56;66.26;100094.63;1698604;82;21003;-48
2022/07/15 02:26:26;;;;;;;7.90;4.50;;;;;;;19.50;66.20;100088.69;1697399;82;21069;-47
2022/07/15 02:28:54;;;;;;;6.42;4.72;;;;;;;19.44;66.15;100090.80;1687831;82;21156;-48
2022/07/15 02:31:21;;;;;;;8.00;4.67;;;;;;;19.37;66.13;100088.58;1746252;80;21069;-48
2022/07/15 02:33:48;;;;;;;7.72;4.08;;;;;;;19.36;66.20;100086.91;1749761;80;21059;-47
2022/07/15 02:36:16;;;;;;;7.62;4.50;;;;;;;19.37;65.97;100075.23;1746642;80;21076;-48
2022/07/15 02:38:45;;;;;;;6.03;4.35;;;;;;;19.38;66.05;100079.02;1747652;80;21023;-48
2022/07/15 02:41:12;;;;;;;5.50;3.90;;;;;;;19.38;66.23;100072.34;1745101;81;21047;-48
2022/07/15 02:43:41;;;;;;;7.67;4.55;;;;;;;19.40;66.36;100072.16;1746448;80;21045;-48
2022/07/15 02:46:09;;;;;;;5.90;4.58;;;;;;;19.40;66.32;100065.01;1746349;80;21002;-48
2022/07/15 02:48:37;;;;;;;6.37;3.50;;;;;;;19.41;66.04;100073.31;1714974;82;21070;-48
2022/07/15 02:51:05;;;;;;;6.03;3.85;;;;;;;19.42;65.72;100068.83;1743325;80;21108;-48
2022/07/15 02:53:34;;;;;;;6.10;4.00;;;;;;;19.44;65.44;100068.94;1746056;80;21237;-48
2022/07/15 02:56:02;;;;;;;6.87;3.72;;;;;;;19.52;65.50;100072.50;1747774;80;21457;-48
2022/07/15 02:58:30;;;;;;;7.45;3.98;;;;;;;19.56;65.52;100075.13;1715216;83;21058;-48
2022/07/15 03:00:59;;;;;;;6.22;3.83;;;;;;;19.60;65.38;100079.05;1743149;80;22334;-48
2022/07/15 03:03:28;;;;;;;5.30;3.65;;;;;;;19.64;65.30;100073.16;1748418;80;21092;-48
2022/07/15 03:05:57;;;;;;;5.78;3.50;;;;;;;19.63;65.36;100079.50;1749220;80;22753;-47
2022/07/15 03:08:24;;;;;;;5.75;3.75;;;;;;;19.64;65.27;100084.34;1748219;80;21543;-48
2022/07/15 03:10:52;;;;;;;6.05;3.65;;;;;;;19.64;65.02;100087.02;1749969;80;21057;-47
2022/07/15 03:13:19;;;;;;;6.47;3.77;;;;;;;19.70;64.88;100094.77;1704794;82;21066;-48
2022/07/15 03:15:47;;;;;;;6.10;4.00;;;;;;;19.70;64.73;100096.91;1678502;83;21098;-49
2022/07/15 03:18:15;;;;;;;6.97;4.22;;;;;;;19.66;64.93;100091.66;1738816;80;21896;-48
2022/07/15 03:20:41;;;;;;;6.58;4.15;;;;;;;19.61;64.97;100092.21;1703236;83;21042;-48
2022/07/15 03:23:09;;;;;;;6.87;4.33;;;;;;;19.58;65.12;100096.59;1700774;82;21368;-48
2022/07/15 03:25:36;;;;;;;5.67;3.67;;;;;;;19.56;65.19;100095.14;1698815;82;21067;-48
2022/07/15 03:28:04;;;;;;;6.10;3.75;;;;;;;19.55;65.35;100096.98;1704661;82;21031;-47
2022/07/15 03:30:33;;;;;;;6.33;4.28;;;;;;;19.59;65.50;100091.58;1705479;83;21095;-47
2022/07/15 03:33:00;;;;;;;6.25;4.08;;;;;;;19.65;65.34;100099.33;1702493;82;21078;-48
2022/07/15 03:35:27;;;;;;;5.95;4.17;;;;;;;19.63;65.16;100104.03;1703206;83;21449;-48
2022/07/15 03:37:54;;;;;;;7.08;4.53;;;;;;;19.61;65.22;100098.88;1705320;82;21035;-49
2022/07/15 03:40:21;;;;;;;6.70;4.08;;;;;;;19.61;65.33;100096.22;1698751;82;21039;-48
2022/07/15 03:42:47;;;;;;;10.25;4.50;;;;;;;19.63;65.46;100096.84;1706686;82;21236;-48
2022/07/15 03:45:14;;;;;;;6.17;4.30;;;;;;;19.65;65.33;100095.33;1701569;82;21011;-48
2022/07/15 03:47:41;;;;;;;6.33;3.70;;;;;;;19.71;65.16;100102.59;1700181;82;21068;-48
2022/07/15 03:50:10;;;;;;;7.05;3.60;;;;;;;19.78;65.17;100098.16;1696480;82;21054;-48
2022/07/15 03:52:37;;;;;;;7.97;3.92;;;;;;;19.85;65.24;100102.23;1699226;82;21581;-48
2022/07/15 03:55:07;;;;;;;7.30;3.95;;;;;;;19.91;64.89;100107.34;1699726;84;21645;-47
2022/07/15 03:57:34;;;;;;;6.67;4.15;;;;;;;19.93;64.29;100111.98;1701208;83;21002;-49
2022/07/15 04:00:01;;;;;;;6.20;4.42;;;;;;;19.94;64.06;100110.94;1699629;83;21071;-47
2022/07/15 04:02:28;;;;;;;6.42;4.12;;;;;;;20.01;63.91;100101.98;1698947;83;21071;-47
2022/07/15 04:04:56;;;;;;;7.08;4.42;;;;;;;20.07;63.72;100109.73;1701512;82;21039;-48
2022/07/15 04:07:24;;;;;;;7.25;4.50;;;;;;;20.09;63.53;100105.53;1699422;83;21222;-50
2022/07/15 04:09:50;;;;;;;6.05;3.77;;;;;;;20.10;63.54;100104.01;1698557;83;21158;-47
2022/07/15 04:12:18;;;;;;;6.08;3.90;;;;;;;20.12;63.49;100103.82;1693081;82;21603;-48
2022/07/15 04:14:45;;;;;;;6.05;3.90;;;;;;;20.17;63.74;100112.92;1700082;82;21099;-48
2022/07/15 04:17:14;;;;;;;5.62;3.80;;;;;;;20.18;63.58;100113.23;1705000;82;21024;-47
2022/07/15 04:19:41;;;;;;;6.15;4.35;;;;;;;20.19;63.62;100115.37;1714340;82;21136;-47
2022/07/15 04:22:08;;;;;;;7.60;4.55;;;;;;;20.20;63.78;100117.86;1717137;82;21101;-47
2022/07/15 04:24:39;;;;;;;9.70;4.12;;;;;;;20.21;63.75;100098.16;1714758;82;21070;-47
2022/07/15 04:27:07;;;;;;;7.08;4.08;;;;;;;20.27;63.81;100077.03;1715778;82;21053;-47
2022/07/15 04:29:35;;;;;;;6.85;4.42;;;;;;;20.29;64.07;100067.81;1707433;82;21119;-47
2022/07/15 04:32:04;;;;;;;6.22;3.95;;;;;;;20.31;64.09;100071.11;1709763;83;21128;-48
2022/07/15 04:34:32;;;;;;;6.60;3.65;;;;;;;20.35;64.33;100072.36;1710536;83;21011;-48
2022/07/15 04:36:59;;;;;;;7.22;4.30;;;;;;;20.42;64.61;100060.38;1711693;82;21137;-47
2022/07/15 04:39:26;;;;;;;6.45;3.98;;;;;;;20.49;64.75;100069.27;1710582;82;21118;-47
2022/07/15 04:41:52;;;;;;;6.65;4.28;;;;;;;20.54;65.07;100078.03;1710216;82;21165;-48
2022/07/15 04:44:19;;;;;;;7.70;4.75;;;;;;;20.58;64.89;100081.47;1713923;82;21193;-47
2022/07/15 04:46:45;;;;;;;7.87;4.47;;;;;;;20.60;64.83;100078.08;1697945;82;21011;-47
2022/07/15 04:52:03;;;;;;;7.20;4.07;;;;;;;20.78;64.79;100104.87;1696604;82;21106;-48
2022/07/15 04:54:29;;;;;;;6.10;3.98;;;;;;;20.78;64.79;100104.87;1705987;82;21059;-48
2022/07/15 04:56:56;;;;;;;7.92;4.30;;;;;;;20.80;64.82;100096.66;1701096;82;21049;-49
2022/07/15 04:59:23;;;;;;;5.42;4.22;;;;;;;20.79;64.92;100093.13;1703732;82;21570;-49
2022/07/15 05:01:50;;;;;;;6.47;4.42;;;;;;;20.78;64.84;100097.66;1694557;82;21514;-49
2022/07/15 05:04:19;;;;;;;7.25;4.37;;;;;;;20.77;64.67;100091.98;1695776;82;21130;-49
2022/07/15 05:06:45;;;;;;;7.37;3.85;;;;;;;20.75;65.10;100099.91;1707303;83;21083;-49
2022/07/15 05:09:13;;;;;;;6.40;4.35;;;;;;;20.75;65.31;100083.87;1708809;83;21133;-49
2022/07/15 05:11:39;;;;;;;6.50;4.15;;;;;;;20.83;65.37;100077.03;1705288;83;21046;-49
2022/07/15 05:14:06;;;;;;;5.95;3.60;;;;;;;20.86;65.35;100060.56;1704219;82;21081;-49
2022/07/15 05:16:32;;;;;;;7.05;4.25;;;;;;;20.89;65.40;100060.17;1702362;82;21075;-49
2022/07/15 05:19:01;;;;;;;10.25;4.10;;;;;;;20.92;65.20;100058.44;1687916;84;21076;-49
2022/07/15 05:21:28;;;;;;;5.78;4.08;;;;;;;20.95;65.17;100054.56;1697401;82;21234;-49
2022/07/15 05:23:55;;;;;;;7.85;3.60;;;;;;;20.97;65.24;100045.30;1672097;82;21057;-50
2022/07/15 05:26:23;;;;;;;9.08;4.12;;;;;;;21.02;65.20;100038.54;1700442;82;21069;-49
2022/07/15 05:28:50;;;;;;;5.80;3.55;;;;;;;21.08;65.05;100029.70;1698085;82;21149;-49
2022/07/15 05:31:17;;;;;;;8.15;4.33;;;;;;;21.15;64.92;100027.89;1717336;82;21089;-49
2022/07/15 05:33:45;;;;;;;7.20;4.10;;;;;;;21.19;64.91;100022.95;1715184;82;22158;-50
2022/07/15 05:36:14;;;;;;;5.35;3.47;;;;;;;21.25;64.84;100014.95;1714703;82;21140;-48
2022/07/15 05:38:44;;;;;;;5.65;3.80;;;;;;;21.33;64.55;100018.78;1715428;82;21065;-49
2022/07/15 05:41:11;;;;;;;5.60;3.02;;;;;;;21.40;64.55;100014.78;1719061;82;21108;-49
2022/07/15 05:43:38;;;;;;;5.72;3.27;;;;;;;21.48;64.45;100005.75;1713927;82;21124;-48
2022/07/15 05:46:05;;;;;;;5.87;4.00;;;;;;;21.61;64.51;99998.27;1717293;83;21117;-48
2022/07/15 05:48:35;;;;;;;5.37;3.27;;;;;;;21.75;64.45;100003.92;1718198;82;21070;-49
2022/07/15 05:51:02;;;;;;;5.12;3.52;;;;;;;21.85;63.98;100002.17;1717738;83;21611;-49
2022/07/15 05:53:31;;;;;;;6.53;4.40;;;;;;;21.93;63.61;100000.63;1711432;82;21535;-49
2022/07/15 05:55:59;;;;;;;7.62;4.62;;;;;;;21.98;63.19;99995.48;1718876;82;21038;-49
2022/07/15 05:58:27;;;;;;;6.33;4.35;;;;;;;22.03;63.33;99996.20;1712888;82;21536;-49
2022/07/15 06:00:56;;;;;;;6.62;3.95;;;;;;;22.05;62.97;99988.77;1702392;82;21070;-49
2022/07/15 06:03:24;;;;;;;5.55;3.98;;;;;;;22.09;62.43;99992.70;1703316;82;21054;-48
2022/07/15 06:05:51;;;;;;;5.92;4.22;;;;;;;22.13;62.23;99986.41;1698152;82;21069;-49
2022/07/15 06:08:19;;;;;;;5.80;3.83;;;;;;;22.19;62.04;99977.52;1701815;82;21116;-48
2022/07/15 06:10:46;;;;;;;8.90;4.20;;;;;;;22.28;61.72;99972.78;1699726;83;21143;-49
2022/07/15 06:13:14;;;;;;;5.80;4.17;;;;;;;22.44;61.75;99978.53;1704402;82;21519;-48
2022/07/15 06:15:42;;;;;;;5.72;4.17;;;;;;;22.54;61.38;99969.21;1707729;82;21162;-48
2022/07/15 06:18:10;;;;;;;5.97;4.00;;;;;;;22.56;61.49;99970.66;1687577;83;21035;-49
2022/07/15 06:20:38;;;;;;;6.55;4.37;;;;;;;22.57;61.51;99970.95;1704647;83;21146;-48
2022/07/15 06:23:05;;;;;;;6.22;4.12;;;;;;;22.56;60.66;99976.02;1741462;80;21146;-48
2022/07/15 06:25:34;;;;;;;6.22;4.20;;;;;;;22.52;60.38;99971.29;1739407;80;21043;-48
2022/07/15 06:28:01;;;;;;;6.40;4.28;;;;;;;22.52;60.45;99969.95;1734772;80;21050;-49
2022/07/15 06:30:28;;;;;;;5.80;3.92;;;;;;;22.56;60.83;99963.95;1740453;80;21090;-48
2022/07/15 06:32:55;;;;;;;5.05;3.37;;;;;;;22.64;60.99;99961.54;1735098;80;22490;-48
2022/07/15 06:35:21;;;;;;;7.15;3.80;;;;;;;22.78;61.16;99967.17;1705858;82;21208;-48
2022/07/15 06:37:48;;;;;;;5.85;4.33;;;;;;;22.96;60.78;99960.27;1694321;82;21031;-48
2022/07/15 06:40:16;;;;;;;6.28;4.30;;;;;;;23.11;60.20;99966.19;1699371;82;21133;-49
2022/07/15 06:42:42;;;;;;;8.55;5.08;;;;;;;23.27;60.51;99962.71;1688233;83;21149;-48
2022/07/15 06:45:10;;;;;;;8.78;4.25;;;;;;;23.39;60.16;99958.28;1685851;83;21495;-48
2022/07/15 06:47:42;;;;;;;5.60;4.17;;;;;;;23.43;59.13;99958.13;1686707;83;21056;-48
2022/07/15 06:50:09;;;;;;;7.50;4.70;;;;;;;23.47;59.11;99952.65;1685724;84;21075;-47
2022/07/15 06:52:36;;;;;;;7.03;4.20;;;;;;;23.54;59.29;99959.31;1681971;83;21083;-48
2022/07/15 06:55:05;;;;;;;6.05;4.03;;;;;;;23.63;59.31;99957.17;1701132;82;21101;-48
2022/07/15 06:57:32;;;;;;;6.80;4.87;;;;;;;23.77;59.54;99954.69;1736648;80;21067;-47
2022/07/15 07:00:02;;;;;;;6.35;4.00;;;;;;;23.92;59.08;99945.79;1698438;82;22176;-49
2022/07/15 07:02:30;;;;;;;7.10;4.83;;;;;;;24.05;59.09;99948.03;1697905;82;21026;-49
2022/07/15 07:04:56;;;;;;;7.05;4.70;;;;;;;24.23;59.53;99938.64;1699411;82;21548;-47
2022/07/15 07:07:23;;;;;;;7.45;4.65;;;;;;;24.41;59.25;99922.20;1701279;82;21063;-48
2022/07/15 07:09:50;;;;;;;9.80;5.30;;;;;;;24.59;59.11;99907.41;1703869;82;21134;-50
2022/07/15 07:12:18;;;;;;;6.65;4.17;;;;;;;24.75;58.53;99908.67;1701116;82;21126;-48
2022/07/15 07:14:45;;;;;;;7.08;4.70;;;;;;;24.85;57.59;99917.55;1701981;82;21066;-49
2022/07/15 07:17:12;;;;;;;7.40;4.90;;;;;;;24.91;56.62;99920.64;1701514;82;21783;-47
2022/07/15 07:19:39;;;;;;;7.50;4.65;;;;;;;24.96;56.54;99915.40;1700173;82;22281;-49
2022/07/15 07:22:06;;;;;;;6.53;4.42;;;;;;;25.03;56.80;99912.11;1697868;82;21134;-48
2022/07/15 07:24:33;;;;;;;7.65;4.00;;;;;;;25.10;56.80;99911.17;1697297;82;21136;-47
2022/07/15 07:27:01;;;;;;;7.03;4.33;;;;;;;25.19;56.66;99905.23;1697539;82;21035;-48
2022/07/15 07:29:28;;;;;;;5.62;4.22;;;;;;;25.34;56.19;99906.70;1704500;82;21113;-49
2022/07/15 07:31:54;;;;;;;6.20;4.10;;;;;;;25.48;55.86;99908.64;1745902;80;21062;-48
2022/07/15 07:34:21;;;;;;;7.15;4.90;;;;;;;25.58;56.07;99902.15;1748596;80;21167;-48
2022/07/15 07:36:48;;;;;;;6.45;4.58;;;;;;;25.65;55.93;99885.33;1709344;82;21055;-48
2022/07/15 07:39:16;;;;;;;6.83;3.95;;;;;;;25.74;55.81;99887.98;1744936;80;21092;-48
2022/07/15 07:41:43;;;;;;;9.00;4.83;;;;;;;25.85;56.45;99904.38;1748468;80;20976;-48
2022/07/15 07:44:09;;;;;;;7.33;4.25;;;;;;;25.95;55.84;99911.38;1753250;80;21181;-50
2022/07/15 07:46:36;;;;;;;5.78;3.87;;;;;;;26.02;55.31;99911.25;1755060;80;21020;-48
2022/07/15 07:49:03;;;;;;;6.00;4.05;;;;;;;26.11;56.01;99912.54;1707762;82;22179;-48
2022/07/15 07:51:30;;;;;;;8.93;4.17;;;;;;;26.15;52.93;99909.64;1699487;83;21028;-47
2022/07/15 07:53:56;;;;;;;6.90;3.83;;;;;;;26.20;52.26;99910.29;1697072;83;21722;-49
2022/07/15 07:56:23;;;;;;;6.55;3.42;;;;;;;26.27;50.71;99905.58;1699788;83;21532;-48
2022/07/15 07:58:50;;;;;;;6.25;3.37;;;;;;;26.32;49.02;99911.88;1700025;83;21101;-47
2022/07/15 08:01:17;;;;;;;6.22;3.50;;;;;;;26.38;49.02;99897.99;1701129;83;21169;-48
2022/07/15 08:03:45;;;;;;;5.17;3.22;;;;;;;26.42;47.25;99901.84;1699040;82;21024;-48
2022/07/15 08:06:12;;;;;;;5.70;3.12;;;;;;;26.40;46.26;99910.70;1702211;83;21119;-48
2022/07/15 08:08:39;;;;;;;6.90;3.55;;;;;;;26.41;46.46;99905.61;1704508;82;22005;-48
2022/07/15 08:11:06;;;;;;;10.48;3.58;;;;;;;26.45;47.00;99906.76;1702838;82;21613;-48
2022/07/15 08:13:32;;;;;;;5.28;3.40;;;;;;;26.53;46.92;99914.17;1702672;83;21926;-48
2022/07/15 08:16:01;;;;;;;5.55;3.70;;;;;;;26.62;46.43;99920.84;1699421;82;21075;-48
2022/07/15 08:18:28;;;;;;;5.30;3.50;;;;;;;26.68;46.00;99923.97;1681061;83;21093;-48
2022/07/15 08:20:54;;;;;;;5.37;3.70;;;;;;;26.69;45.86;99918.30;1672353;84;21039;-48
2022/07/15 08:23:21;;;;;;;6.50;3.83;;;;;;;26.74;46.01;99931.08;1675881;84;21066;-48
2022/07/15 08:25:50;;;;;;;7.28;3.70;;;;;;;26.79;46.00;99929.83;1690591;84;21106;-47
2022/07/15 08:28:18;;;;;;;6.37;3.47;;;;;;;26.84;44.68;99943.42;1701540;83;21532;-48
2022/07/15 08:30:45;;;;;;;5.37;3.60;;;;;;;26.88;44.85;99928.91;1697774;82;21133;-48
2022/07/15 08:33:14;;;;;;;5.35;3.30;;;;;;;26.90;43.93;99925.97;1702099;82;21063;-49
2022/07/15 08:35:41;;;;;;;5.08;3.30;;;;;;;26.91;43.98;99937.88;1707409;82;21135;-48
2022/07/15 08:38:08;;;;;;;7.75;3.80;;;;;;;26.94;44.75;99929.84;1676759;84;21119;-48
2022/07/15 08:40:37;;;;;;;6.75;3.50;;;;;;;26.99;44.39;99942.08;1698429;83;21073;-49
2022/07/15 08:43:10;;;;;;;7.53;3.65;;;;;;;27.05;43.88;99939.77;1703256;82;21126;-48
2022/07/15 08:45:42;;;;;;;5.25;3.55;;;;;;;27.10;43.17;99941.21;1704660;82;21120;-48
2022/07/15 08:48:08;;;;;;;8.08;3.65;;;;;;;27.18;43.33;99936.73;1695995;83;21066;-48
2022/07/15 08:50:35;;;;;;;8.45;4.03;;;;;;;27.28;43.42;99933.39;1700379;83;21088;-48
2022/07/15 08:53:03;;;;;;;9.90;4.25;;;;;;;27.38;43.19;99934.94;1704671;83;21082;-47
2022/07/15 08:55:30;;;;;;;6.47;3.30;;;;;;;27.46;42.96;99955.34;1705993;82;21145;-48
2022/07/15 08:57:57;;;;;;;5.72;3.55;;;;;;;27.51;43.03;99935.16;1706368;83;21592;-48
2022/07/15 09:00:28;;;;;;;8.15;3.95;;;;;;;27.56;42.60;99949.30;1703712;82;21066;-48
2022/07/15 09:02:53;;;;;;;6.30;3.50;;;;;;;27.57;43.06;99949.05;1701186;83;21139;-48
2022/07/15 09:05:33;;;;;;;6.33;4.00;;;;;;;27.60;42.98;99951.27;1700805;83;21091;-48
2022/07/15 09:08:16;;;;;;;5.87;3.80;;;;;;;27.62;42.86;99945.59;1696748;83;21103;-48
2022/07/15 09:10:52;;;;;;;5.75;3.75;;;;;;;27.66;43.42;99952.70;1691809;82;21385;-48
2022/07/15 09:13:39;;;;;;;5.60;3.87;;;;;;;27.71;43.69;99956.83;1706631;82;21564;-48
2022/07/15 09:16:09;;;;;;;6.47;4.33;;;;;;;27.73;46.36;99962.25;1709683;83;21739;-48
2022/07/15 09:18:41;;;;;;;6.80;4.85;;;;;;;27.68;47.08;99982.98;1727877;80;21027;-48
2022/07/15 09:21:24;;;;;;;6.22;4.78;;;;;;;27.53;47.75;99978.96;1751733;80;21081;-48
2022/07/15 09:23:51;;;;;;;5.95;4.75;;;;;;;27.53;48.84;99980.85;1751007;80;21080;-48
2022/07/15 09:26:35;;;;;;;8.63;4.90;;;;;;;27.52;48.92;99984.09;1754168;81;21110;-50
2022/07/15 09:29:02;;;;;;;7.95;5.25;;;;;;;27.47;49.77;99989.42;1755398;80;21082;-48
2022/07/15 09:33:51;;;;;;;7.17;5.60;;;;;;;27.39;49.55;99979.81;1792584;78;22400;-47
2022/07/15 09:36:21;;;;;;;6.72;4.78;;;;;;;27.42;49.11;99976.63;1755355;79;21153;-48
2022/07/15 09:38:55;;;;;;;10.72;9.18;;;;;;;27.41;49.43;99989.84;1769477;79;21070;-48
2022/07/15 09:41:41;;;;;;;7.62;4.85;;;;;;;27.36;50.18;99986.24;1770965;79;20989;-48
2022/07/15 09:44:11;;;;;;;5.60;4.50;;;;;;;27.24;49.32;99989.79;1764318;79;20943;-49
2022/07/15 09:47:03;;;;;;;7.70;4.90;;;;;;;27.14;49.32;99995.55;1768132;79;21028;-49
2022/07/15 09:49:34;;;;;;;8.70;4.62;;;;;;;27.11;49.84;99999.53;1763718;79;21052;-47
2022/07/15 09:52:07;;;;;;;6.70;4.72;;;;;;;27.02;49.76;99996.95;1767579;79;20980;-48
2022/07/15 09:54:38;;;;;;;7.33;5.03;;;;;;;26.93;49.77;100001.89;1766020;79;21067;-48
2022/07/15 09:57:08;;;;;;;6.90;4.87;;;;;;;26.85;50.18;100009.85;1764770;79;21075;-48
2022/07/15 09:59:36;;;;;;;9.85;5.50;;;;;;;26.75;50.24;100009.66;1765443;79;21065;-49
2022/07/15 10:02:04;;;;;;;9.40;4.87;;;;;;;26.64;50.38;100011.30;1765093;79;21083;-48
2022/07/15 10:04:31;;;;;;;8.70;5.30;;;;;;;26.55;50.53;100015.95;1765071;79;21147;-48
2022/07/15 10:07:02;;;;;;;5.30;3.83;;;;;;;26.46;49.52;100030.31;1766061;79;21586;-48
2022/07/15 10:09:31;;;;;;;7.35;4.22;;;;;;;26.35;49.15;100020.37;1763735;79;21059;-48
2022/07/15 10:12:13;;;;;;;6.55;3.85;;;;;;;26.24;49.21;100025.54;1760469;79;21512;-48
2022/07/15 10:15:13;;;;;;;7.40;4.70;;;;;;;26.17;48.97;100026.16;1757824;79;21120;-48
2022/07/15 10:18:23;;;;;;;5.42;4.20;;;;;;;26.08;48.72;100023.00;1763329;79;23011;-48
2022/07/15 10:21:34;;;;;;;6.87;4.65;;;;;;;25.96;48.88;100016.80;1763829;79;21015;-48
2022/07/15 10:24:09;;;;;;;5.67;4.40;;;;;;;25.86;49.38;100014.64;1755747;80;21667;-48
2022/07/15 10:26:48;;;;;;;;;;;;;;;25.82;50.20;100021.53;1763666;79;21113;-48
2022/07/15 10:29:15;;;;;;;8.15;4.90;;;;;;;25.79;49.72;100035.50;1768239;79;20199;-48
2022/07/15 10:31:42;;;;;;;7.80;4.55;;;;;;;25.68;50.16;100034.41;1771272;79;21216;-52
2022/07/15 10:34:16;;;;;;;8.43;4.53;;;;;;;25.63;50.76;100034.28;1682014;81;21047;-48
2022/07/15 10:36:54;;;;;;;7.90;4.60;;;;;;;25.63;50.81;100036.97;1754117;79;21070;-50
2022/07/15 10:39:26;;;;;;;5.80;4.30;;;;;;;25.68;50.65;100043.02;1752909;79;21047;-48
2022/07/15 10:42:02;;;;;;;12.58;4.95;;;;;;;25.66;49.13;100043.25;1742885;79;21529;-48
2022/07/15 10:44:35;;;;;;;8.18;4.53;;;;;;;25.59;49.34;100045.23;1759288;79;21730;-48
2022/07/15 10:47:19;;;;;;;6.95;4.67;;;;;;;25.54;49.19;100059.38;1744769;79;21058;-49
2022/07/15 10:49:50;;;;;;;6.53;4.35;;;;;;;25.51;49.65;100063.06;1755206;79;21102;-49
2022/07/15 10:52:22;;;;;;;5.97;4.28;;;;;;;25.45;49.65;100071.52;1752655;80;21071;-48
2022/07/15 10:55:03;;;;;;;7.37;4.58;;;;;;;25.40;50.04;100073.57;1755129;80;21134;-49
2022/07/15 10:57:52;;;;;;;6.87;4.17;;;;;;;25.40;50.30;100084.84;1748101;79;21205;-48
2022/07/15 11:00:34;;;;;;;7.58;4.83;;;;;;;25.44;50.25;100112.17;1750190;79;21055;-48
2022/07/15 11:03:14;;;;;;;14.85;5.35;;;;;;;25.37;49.81;100104.99;1752859;79;21110;-48
2022/07/15 11:06:01;;;;;;;6.50;4.80;;;;;;;25.25;50.34;100105.44;1749244;79;21047;-48
2022/07/15 11:08:40;;;;;;;6.28;4.97;;;;;;;25.18;50.67;100108.72;1768671;79;21114;-48
2022/07/15 11:11:22;;;;;;;8.45;5.45;;;;;;;25.07;51.18;100106.27;1758276;80;21135;-49
2022/07/15 11:13:50;;;;;;;9.13;5.60;;;;;;;24.99;51.90;100107.38;1754539;79;20984;-48
2022/07/15 11:16:21;;;;;;;7.37;5.97;;;;;;;24.96;52.88;100114.55;1760005;79;21098;-48
2022/07/15 11:18:55;;;;;;;8.68;6.22;;;;;;;24.94;53.71;100108.58;1753575;80;21126;-48
2022/07/15 11:21:23;;;;;;;7.90;6.60;;;;;;;24.94;54.37;100115.31;1756407;79;21640;-48
2022/07/15 11:23:51;;;;;;;7.97;6.25;;;;;;;24.93;54.48;100116.38;1757513;79;21981;-49
2022/07/15 11:26:18;;;;;;;8.90;6.05;;;;;;;24.87;54.99;100122.64;1757192;79;21225;-49
2022/07/15 11:28:55;;;;;;;8.23;6.42;;;;;;;24.83;55.35;100137.07;1755866;79;21106;-49
2022/07/15 11:31:23;;;;;;;8.68;6.60;;;;;;;24.78;55.35;100131.53;1754420;80;21044;-49
2022/07/15 11:33:54;;;;;;;8.63;6.67;;;;;;;24.74;55.34;100133.01;1753962;80;21049;-48
2022/07/15 11:36:22;;;;;;;8.43;6.45;;;;;;;24.74;55.60;100128.97;1756681;79;21788;-48
2022/07/15 11:38:49;;;;;;;8.60;6.70;;;;;;;24.76;55.70;100120.68;1756122;79;21018;-49
2022/07/15 11:46:53;;;;;;;7.67;6.85;;;;;;;24.60;55.04;100101.39;1754813;79;21016;-48
2022/07/15 11:49:30;;;;;;;7.00;5.92;;;;;;;24.51;55.66;100118.84;1751149;79;21583;-48
2022/07/15 11:51:58;;;;;;;8.30;6.15;;;;;;;24.43;55.83;100140.09;1756701;79;21041;-48